Weather reports worldwide

Advertisment
Stonyhurst, United Kingdom (99060): temperature & dewpoint: 19.02.2020 09:00:00 - 25.02.2020 09:00:00 (GMT)Stonyhurst, United Kingdom (99060): precipitation: 19.02.2020 09:00:00 - 25.02.2020 09:00:00 (GMT)
Date & Time tt [°C] td [°C] rr [mm]
25.02.2020 09:00:00 - - -
25.02.2020 08:00:00 2,3 1,7 1,6
25.02.2020 07:00:00 1,6 1,3 2,4
25.02.2020 06:00:00 2,8 1,4 0,8
25.02.2020 05:00:00 4,2 1,7 0,0
25.02.2020 04:00:00 4,3 2,1 0,2
25.02.2020 03:00:00 4,0 1,6 0,2
25.02.2020 02:00:00 4,5 1,8 0,0
25.02.2020 01:00:00 4,4 1,7 0,2
25.02.2020 00:00:00 4,2 1,3 0,2
24.02.2020 23:00:00 4,9 2,1 0,0
24.02.2020 22:00:00 4,4 2,8 0,6
24.02.2020 21:00:00 5,6 1,4 0,0
24.02.2020 20:00:00 5,5 1,0 0,0
24.02.2020 19:00:00 5,8 1,5 0,0
24.02.2020 18:00:00 6,1 2,8 0,2
24.02.2020 17:00:00 6,2 3,1 0,0
24.02.2020 16:00:00 6,7 4,2 0,0
24.02.2020 15:00:00 9,3 6,8 0,0
24.02.2020 14:00:00 9,8 8,3 0,0
24.02.2020 13:00:00 9,9 9,3 0,8
24.02.2020 12:00:00 8,1 8,1 1,0
24.02.2020 11:00:00 4,9 4,9 2,0
24.02.2020 10:00:00 3,3 3,2 6,0
24.02.2020 09:00:00 2,1 1,9 6,6
24.02.2020 08:00:00 1,9 1,5 5,8
24.02.2020 07:00:00 2,3 1,7 3,8
24.02.2020 06:00:00 0,5 0,2 0,0
24.02.2020 05:00:00 0,5 0,0 1,4
24.02.2020 04:00:00 2,1 1,2 1,0
24.02.2020 03:00:00 3,1 1,2 0,4
24.02.2020 02:00:00 3,4 1,8 0,0
24.02.2020 01:00:00 3,0 1,8 0,0
24.02.2020 00:00:00 3,6 2,1 0,0
23.02.2020 23:00:00 3,5 2,0 0,0
23.02.2020 22:00:00 3,3 0,9 0,0
23.02.2020 21:00:00 2,7 0,4 0,0
23.02.2020 20:00:00 3,5 0,0 0,0
23.02.2020 19:00:00 4,2 -0,2 0,0
23.02.2020 18:00:00 4,8 -0,4 0,0
23.02.2020 17:00:00 5,3 -0,5 0,0
23.02.2020 16:00:00 5,6 -0,7 0,0
23.02.2020 15:00:00 6,0 -1,1 0,0
23.02.2020 14:00:00 6,4 0,0 0,0
23.02.2020 13:00:00 5,9 0,6 0,0
23.02.2020 12:00:00 5,2 3,4 1,0
23.02.2020 11:00:00 5,0 3,7 0,2
23.02.2020 10:00:00 4,5 3,4 1,0
23.02.2020 09:00:00 5,6 5,4 1,6
23.02.2020 08:00:00 5,6 5,4 0,4
23.02.2020 07:00:00 5,3 5,1 0,6
23.02.2020 06:00:00 5,3 5,0 1,8
23.02.2020 05:00:00 5,3 4,8 2,6
23.02.2020 04:00:00 5,5 4,9 2,6
23.02.2020 03:00:00 5,5 5,1 3,0
23.02.2020 02:00:00 5,4 5,0 2,2
23.02.2020 01:00:00 5,5 5,0 2,0
23.02.2020 00:00:00 5,7 4,7 0,6
22.02.2020 23:00:00 4,7 4,1 2,6
22.02.2020 22:00:00 5,5 4,0 1,2
22.02.2020 21:00:00 6,5 3,9 0,0
22.02.2020 20:00:00 6,3 3,7 0,0
22.02.2020 19:00:00 6,7 3,2 0,0
22.02.2020 18:00:00 6,7 1,5 0,0
22.02.2020 17:00:00 7,0 1,4 0,0
22.02.2020 16:00:00 7,1 1,4 0,0
22.02.2020 15:00:00 7,5 2,0 0,0
22.02.2020 14:00:00 7,6 2,0 0,0
22.02.2020 13:00:00 7,6 3,0 0,0
22.02.2020 12:00:00 7,5 1,9 0,0
22.02.2020 11:00:00 8,3 2,7 0,0
22.02.2020 10:00:00 7,8 3,3 0,0
22.02.2020 09:00:00 7,0 3,8 0,0
22.02.2020 08:00:00 5,8 4,4 1,2
22.02.2020 07:00:00 7,0 5,2 0,0
22.02.2020 06:00:00 6,8 5,6 0,8
22.02.2020 05:00:00 9,0 8,0 1,6
22.02.2020 04:00:00 9,4 8,5 0,2
22.02.2020 03:00:00 9,6 7,6 0,0
22.02.2020 02:00:00 9,5 7,5 0,2
22.02.2020 01:00:00 8,9 7,8 1,2
22.02.2020 00:00:00 8,9 7,5 1,2
21.02.2020 23:00:00 8,8 7,3 0,8
21.02.2020 22:00:00 8,4 7,4 0,6
21.02.2020 21:00:00 8,2 7,5 3,4
21.02.2020 20:00:00 8,5 7,1 1,4
21.02.2020 19:00:00 8,8 6,9 0,4
21.02.2020 18:00:00 8,4 7,3 1,8
21.02.2020 17:00:00 8,1 7,5 3,2
21.02.2020 16:00:00 8,1 7,4 4,0
21.02.2020 15:00:00 8,0 7,4 5,6
21.02.2020 14:00:00 7,8 7,1 4,2
21.02.2020 13:00:00 7,6 6,9 3,6
21.02.2020 12:00:00 7,3 6,4 3,0
21.02.2020 11:00:00 7,0 5,9 2,6
21.02.2020 10:00:00 6,8 5,2 0,4
21.02.2020 09:00:00 6,1 5,2 1,4
21.02.2020 08:00:00 7,1 4,4 0,0
21.02.2020 07:00:00 7,1 3,3 0,0
21.02.2020 06:00:00 6,5 3,3 0,0
21.02.2020 05:00:00 6,1 2,9 0,0
21.02.2020 04:00:00 5,7 3,1 0,0
21.02.2020 03:00:00 5,5 2,7 0,0
21.02.2020 02:00:00 5,0 2,4 0,0
21.02.2020 01:00:00 5,0 2,3 0,0
21.02.2020 00:00:00 5,1 2,0 0,0
20.02.2020 23:00:00 5,4 1,6 0,0
20.02.2020 22:00:00 5,1 1,0 0,0
20.02.2020 21:00:00 5,1 1,0 0,0
20.02.2020 20:00:00 5,1 0,4 0,0
20.02.2020 19:00:00 4,7 0,4 0,0
20.02.2020 18:00:00 4,3 0,1 0,0
20.02.2020 17:00:00 4,6 -0,4 0,0
20.02.2020 16:00:00 5,4 0,1 0,0
20.02.2020 15:00:00 5,5 0,2 0,0
20.02.2020 14:00:00 4,4 2,2 0,2
20.02.2020 13:00:00 5,2 2,6 0,0
20.02.2020 12:00:00 4,1 2,9 1,0
20.02.2020 11:00:00 3,8 2,5 3,6
20.02.2020 10:00:00 6,3 5,8 3,0
20.02.2020 09:00:00 7,0 6,2 5,2
20.02.2020 08:00:00 8,0 7,4 1,6
20.02.2020 07:00:00 8,6 6,9 0,0
20.02.2020 06:00:00 8,7 7,0 0,4
20.02.2020 05:00:00 8,5 7,3 0,0
20.02.2020 04:00:00 9,0 7,1 0,0
20.02.2020 03:00:00 9,2 7,2 0,0
20.02.2020 02:00:00 8,5 7,7 0,2
20.02.2020 01:00:00 8,5 7,6 0,4
20.02.2020 00:00:00 8,3 7,5 0,2
19.02.2020 23:00:00 8,3 7,4 0,2
19.02.2020 22:00:00 8,1 7,5 0,4
19.02.2020 21:00:00 8,0 7,3 0,0
19.02.2020 20:00:00 7,6 7,3 1,4
19.02.2020 19:00:00 7,3 7,0 3,0
19.02.2020 18:00:00 7,2 6,8 3,2
19.02.2020 17:00:00 7,1 6,3 1,6
19.02.2020 16:00:00 6,7 5,7 0,8
19.02.2020 15:00:00 5,5 4,6 1,2
19.02.2020 14:00:00 5,0 3,9 1,0
19.02.2020 13:00:00 4,8 3,8 1,2
19.02.2020 12:00:00 4,5 3,4 0,8
19.02.2020 11:00:00 5,3 2,8 0,0
19.02.2020 10:00:00 5,4 3,0 0,0
19.02.2020 09:00:00 4,8 2,6 0,0

tt = temperature
td = dewpoint
rr = precipitation

Next stations